Gambler — LELC — position and weather

sailwx.info

Track history (hours):
 
Tides and Currents Weather Stations Pressure Air Temp Water Temp Dewpoint Dewpoint Depression Visibility Wind Speed Wind Dir Waves Ship Positions

Gambler

Last reported at 2016-Jan-20 15:34 UTC. Time now 2016-Feb-09 15:58 UTC.
Position N 59°13' E 005°04'.
Warning: this ship's position is 20 days out of date.

Length 70 m.

Type: Fishing. MMSI: 258412000.

Date/timePositionNaut miles runAvg speedWind from/ knotsBaromVisibWave heightAir tempDewpointWater temp
2016-Jan-20 15:34N 59°13' E 005°04'8 7.5
2016-Jan-20 14:33N 59°09' E 005°16'0 0.0
2016-Jan-20 13:33N 59°09' E 005°16'0 0.0
2016-Jan-20 12:34N 59°09' E 005°16'0 0.0
2016-Jan-20 11:33N 59°09' E 005°16'0 0.0
2016-Jan-20 10:33N 59°09' E 005°16'0 0.0
2016-Jan-20 09:34N 59°09' E 005°16'0 0.0
2016-Jan-20 08:33N 59°09' E 005°16'0 0.0
2016-Jan-20 07:33N 59°09' E 005°16'0 0.0
2016-Jan-20 06:33N 59°09' E 005°16'0 0.0
2016-Jan-20 05:34N 59°09' E 005°16'0 0.0
2016-Jan-20 04:33N 59°09' E 005°16'0 0.0
2016-Jan-20 03:33N 59°09' E 005°16'0 0.0
2016-Jan-20 02:34N 59°09' E 005°16'0 0.0
2016-Jan-20 01:33N 59°09' E 005°16'0 0.0
2016-Jan-20 00:33N 59°09' E 005°16'0 0.0
2016-Jan-19 23:33N 59°09' E 005°16'0 0.0
2016-Jan-19 22:33N 59°09' E 005°16'0 0.0
2016-Jan-19 21:33N 59°09' E 005°16'0 0.0
2016-Jan-19 20:33N 59°09' E 005°16'0 0.0
2016-Jan-19 19:33N 59°09' E 005°16'0 0.0
2016-Jan-19 18:34N 59°09' E 005°16'0 0.0
2016-Jan-19 17:34N 59°09' E 005°16'0 0.0
2016-Jan-19 16:33N 59°09' E 005°16'0 0.0
2016-Jan-19 15:33N 59°09' E 005°16'0 0.0
2016-Jan-19 14:34N 59°09' E 005°16'0 0.0
2016-Jan-19 13:33N 59°09' E 005°16'0 0.0
2016-Jan-19 12:34N 59°09' E 005°16'1 1.2
2016-Jan-19 11:33N 59°08' E 005°18'30 9.9
2016-Jan-19 08:33N 59°38' E 005°19'1211.7
2016-Jan-19 07:31N 59°48' E 005°33'278 8.9
2016-Jan-18 00:07N 64°01' E 009°37'610.4
2016-Jan-17 23:33N 64°05' E 009°46'49 9.4
2016-Jan-17 18:22N 64°44' E 010°56'910.8
2016-Jan-17 17:33N 64°50' E 011°10'1110.8
2016-Jan-17 16:33N 64°57' E 011°29'1110.6
2016-Jan-17 15:34N 65°05' E 011°46'7710.4
2016-Jan-17 08:07N 66°17' E 012°55'611.1
2016-Jan-17 07:34N 66°23' E 012°58'1310.0
2016-Jan-17 06:15N 66°36' E 013°04'4910.4
2016-Jan-17 01:31N 67°20' E 013°57'1111.0
2016-Jan-17 00:33N 67°30' E 014°11'1211.5
2016-Jan-16 23:29N 67°42' E 014°16'  
2016-Jan-14 11:27N 64°16' E 009°52'1010.5
2016-Jan-14 10:32N 64°07' E 009°43'1210.5
2016-Jan-14 09:23N 63°57' E 009°30'910.5
2016-Jan-14 08:30N 63°49' E 009°21'  
2016-Jan-11 15:33N 59°08' E 004°43'13 9.9
2016-Jan-11 14:12N 58°55' E 004°42'610.1
2016-Jan-11 13:33N 58°48' E 004°40'  
Track history (hours):
 
Tides and Currents Weather Stations Pressure Air Temp Water Temp Dewpoint Dewpoint Depression Visibility Wind Speed Wind Dir Waves Ship Positions

Gambler

Last reported at 2016-Jan-20 15:34 UTC. Time now 2016-Feb-09 15:58 UTC.
Position N 59°13' E 005°04'.
Warning: this ship's position is 20 days out of date.

Length 70 m.

Type: Fishing. MMSI: 258412000.

Date/timePositionNaut miles runAvg speedWind from/ knotsBaromVisibWave heightAir tempDewpointWater temp
2016-Jan-20 15:34N 59°13' E 005°04'8 7.5
2016-Jan-20 14:33N 59°09' E 005°16'0 0.0
2016-Jan-20 13:33N 59°09' E 005°16'0 0.0
2016-Jan-20 12:34N 59°09' E 005°16'0 0.0
2016-Jan-20 11:33N 59°09' E 005°16'0 0.0
2016-Jan-20 10:33N 59°09' E 005°16'0 0.0
2016-Jan-20 09:34N 59°09' E 005°16'0 0.0
2016-Jan-20 08:33N 59°09' E 005°16'0 0.0
2016-Jan-20 07:33N 59°09' E 005°16'0 0.0
2016-Jan-20 06:33N 59°09' E 005°16'0 0.0
2016-Jan-20 05:34N 59°09' E 005°16'0 0.0
2016-Jan-20 04:33N 59°09' E 005°16'0 0.0
2016-Jan-20 03:33N 59°09' E 005°16'0 0.0
2016-Jan-20 02:34N 59°09' E 005°16'0 0.0
2016-Jan-20 01:33N 59°09' E 005°16'0 0.0
2016-Jan-20 00:33N 59°09' E 005°16'0 0.0
2016-Jan-19 23:33N 59°09' E 005°16'0 0.0
2016-Jan-19 22:33N 59°09' E 005°16'0 0.0
2016-Jan-19 21:33N 59°09' E 005°16'0 0.0
2016-Jan-19 20:33N 59°09' E 005°16'0 0.0
2016-Jan-19 19:33N 59°09' E 005°16'0 0.0
2016-Jan-19 18:34N 59°09' E 005°16'0 0.0
2016-Jan-19 17:34N 59°09' E 005°16'0 0.0
2016-Jan-19 16:33N 59°09' E 005°16'0 0.0
2016-Jan-19 15:33N 59°09' E 005°16'0 0.0
2016-Jan-19 14:34N 59°09' E 005°16'0 0.0
2016-Jan-19 13:33N 59°09' E 005°16'0 0.0
2016-Jan-19 12:34N 59°09' E 005°16'1 1.2
2016-Jan-19 11:33N 59°08' E 005°18'30 9.9
2016-Jan-19 08:33N 59°38' E 005°19'1211.7
2016-Jan-19 07:31N 59°48' E 005°33'278 8.9
2016-Jan-18 00:07N 64°01' E 009°37'610.4
2016-Jan-17 23:33N 64°05' E 009°46'49 9.4
2016-Jan-17 18:22N 64°44' E 010°56'910.8
2016-Jan-17 17:33N 64°50' E 011°10'1110.8
2016-Jan-17 16:33N 64°57' E 011°29'1110.6
2016-Jan-17 15:34N 65°05' E 011°46'7710.4
2016-Jan-17 08:07N 66°17' E 012°55'611.1
2016-Jan-17 07:34N 66°23' E 012°58'1310.0
2016-Jan-17 06:15N 66°36' E 013°04'4910.4
2016-Jan-17 01:31N 67°20' E 013°57'1111.0
2016-Jan-17 00:33N 67°30' E 014°11'1211.5
2016-Jan-16 23:29N 67°42' E 014°16'  
2016-Jan-14 11:27N 64°16' E 009°52'1010.5
2016-Jan-14 10:32N 64°07' E 009°43'1210.5
2016-Jan-14 09:23N 63°57' E 009°30'910.5
2016-Jan-14 08:30N 63°49' E 009°21'  
2016-Jan-11 15:33N 59°08' E 004°43'13 9.9
2016-Jan-11 14:12N 58°55' E 004°42'610.1
2016-Jan-11 13:33N 58°48' E 004°40'  

Dump ship's entire track history